• Join FlightAware (Why Join?)
  • Login
  • US Flag 
Gobble Gobble! 
06:56AM EST


 

Airport Tracker/Info


-or-


 

Live Flight TrackerFlight Track Log ✈ N709UW ✈ 16-Apr-2013 ✈ KPHL - KRSW

Flight Track Log - Related Links

Times and Time Zones

All times are in EDT time to prevent confusion due to time zone crossing. See the N709UW flight status page for this flight to view local times or setup timezone preferences in your user account.

Time Position Orientation Groundspeed Altitude Reporting Facility
EDT Latitude Longitude Course Direction KTS MPH feet Rate Location/Type
12:09PM 39.8833 -75.2167 232° Southwest 161 185 900  Level Philadelphia TRACON
12:09PM 39.8814 -75.2006 99° East 168 193 1,400 1,680 Climbing FAA TRACON SMA TRACON (SMA)
12:10PM 39.8889 -75.1806 64° Northeast 188 216 2,000 1,800 Climbing FAA TRACON SMA TRACON (SMA)
12:10PM 39.8981 -75.1533 66° East 215 247 2,600 1,620 Climbing FAA TRACON SMA TRACON (SMA)
12:10PM 39.9050 -75.1314 68° East 225 259 3,100 2,220 Climbing FAA TRACON SMA TRACON (SMA)
12:11PM 39.9178 -75.1067 56° Northeast 259 298 4,100 3,120 Climbing FAA TRACON SMA TRACON (SMA)
12:11PM 39.9397 -75.0903 30° Northeast 239 275 5,200 2,580 Climbing FAA TRACON SMA TRACON (SMA)
12:12PM 39.8333 -75.6801 270° West  Level FlightAware Approximate
12:12PM 39.9750 -75.1150 332° Northwest 245 282 6,700  Level FAA TRACON SMA TRACON (SMA)
12:12PM 39.9772 -75.1494 275° West 259 298 7,400 2,700 Climbing FAA TRACON SMA TRACON (SMA)
12:12PM 39.9722 -75.1761 256° West 254 292 8,500 2,880 Climbing FAA TRACON SMA TRACON (SMA)
12:13PM 39.8107 -75.8211 232° Southwest  Level FlightAware Approximate
12:13PM 39.9656 -75.2036 252° West 251 289 9,500  Level FAA TRACON SMA TRACON (SMA)
12:13PM 39.9575 -75.2394 254° West 275 316 10,000 780 Climbing FAA TRACON SMA TRACON (SMA)
12:13PM 39.9500 -75.2708 253° West 314 361 10,000  Level FAA TRACON SMA TRACON (SMA)
12:14PM 39.7393 -75.9401 232° Southwest  Level FlightAware Approximate
12:14PM 39.9428 -75.3058 255° West 337 388 10,000  Level FAA TRACON SMA TRACON (SMA)
12:14PM 39.9333 -75.3483 254° West 322 371 10,000  Level FAA TRACON SMA TRACON (SMA)
12:14PM 39.9258 -75.3817 254° West 319 367 10,000  Level FAA TRACON SMA TRACON (SMA)
12:15PM 39.9172 -75.4247 255° West 318 366 10,000  Level FAA TRACON SMA TRACON (SMA)
12:15PM 39.9100 -75.4589 255° West 317 365 10,000  Level FAA TRACON SMA TRACON (SMA)
12:15PM 39.9028 -75.4931 255° West 318 366 10,000  Level FAA TRACON SMA TRACON (SMA)
12:16PM 39.8936 -75.5356 254° West 318 366 10,000  Level FAA TRACON SMA TRACON (SMA)
12:16PM 39.8872 -75.5692 256° West 319 367 10,000 420 Level FAA TRACON SMA TRACON (SMA)
12:16PM 39.8797 -75.6025 254° West 319 367 10,300 2,100 Climbing FAA TRACON SMA TRACON (SMA)
12:17PM 39.8700 -75.6475 254° West 321 369 11,400 2,820 Climbing FAA TRACON SMA TRACON (SMA)
12:17PM 39.8625 -75.6825 254° West 325 374 12,200 2,400 Climbing FAA TRACON SMA TRACON (SMA)
12:17PM 39.8550 -75.7181 255° West 329 379 13,000 2,520 Climbing FAA TRACON SMA TRACON (SMA)
12:18PM 39.8464 -75.7622 256° West 335 386 13,900 2,520 Climbing FAA TRACON SMA TRACON (SMA)
12:18PM 39.8364 -75.7981 250° West 339 390 14,700 2,400 Climbing FAA TRACON SMA TRACON (SMA)
12:18PM 39.8192 -75.8283 233° Southwest 354 407 15,500 2,520 Climbing FAA TRACON SMA TRACON (SMA)
12:19PM 39.7933 -75.8694 231° Southwest 354 407 16,400 2,520 Climbing FAA TRACON SMA TRACON (SMA)
12:19PM 39.7736 -75.9008 231° Southwest 359 413 17,200 2,220 Climbing FAA TRACON SMA TRACON (SMA)
12:19PM 39.7569 -75.9292 233° Southwest 359 413 17,900 660 Climbing FAA TRACON SMA TRACON (SMA)
12:20PM 39.7569 -75.9292 30° Northeast 359 413 17,900 1,680 Level FAA TRACON SMA TRACON (SMA)
12:22PM 39.5997 -76.1786 231° Southwest 375 432 22,100 2,040 Climbing Washington Center
12:23PM 39.5283 -76.2883 230° Southwest 381 438 23,700 1,500 Climbing Washington Center
12:24PM 39.4547 -76.4033 230° Southwest 401 461 25,200 1,440 Climbing Washington Center
12:25PM 39.3828 -76.5206 232° Southwest 414 476 26,600 1,260 Climbing Washington Center
12:26PM 39.3069 -76.6378 230° Southwest 426 490 27,800 1,200 Climbing Washington Center
12:27PM 39.2308 -76.7544 230° Southwest 432 497 29,000 1,200 Climbing Washington Center
12:28PM 39.1525 -76.8789 231° Southwest 439 505 30,300 1,200 Climbing Washington Center
12:29PM 39.0719 -76.9953 228° Southwest 447 514 31,500 1,140 Climbing Washington Center
12:30PM 38.9811 -77.1056 223° Southwest 447 514 32,600 1,200 Climbing Washington Center
12:31PM 38.8881 -77.2078 221° Southwest 447 514 33,900 660 Climbing Washington Center
12:32PM 38.7969 -77.3097 221° Southwest 447 514 34,000  Climbing Washington Center
12:33PM 38.7058 -77.4086 220° Southwest 442 509 34,000  Level Washington Center
12:34PM 38.6125 -77.5072 220° Southwest 437 503 34,000  Level Washington Center
12:35PM 38.5233 -77.6086 222° Southwest 437 503 34,000  Level Washington Center
12:36PM 38.4172 -77.7169 219° Southwest 437 503 34,000  Level Washington Center
12:37PM 38.3364 -77.8072 221° Southwest 437 503 34,000  Level Washington Center
12:38PM 38.2342 -77.9153 220° Southwest 437 503 34,000  Level Washington Center
12:39PM 38.1533 -78.0000 220° Southwest 437 503 34,000  Level Washington Center
12:40PM 38.0531 -78.1047 219° Southwest 437 503 34,000  Level Washington Center
12:41PM 37.9656 -78.2019 221° Southwest 431 496 34,000  Level Washington Center
12:42PM 37.8717 -78.2936 218° Southwest 431 496 34,000  Level Washington Center
12:43PM 37.7758 -78.3819 216° Southwest 431 496 34,000  Level Washington Center
12:44PM 37.6797 -78.4731 217° Southwest 431 496 34,000  Level Washington Center
12:45PM 37.5944 -78.5536 217° Southwest 431 496 34,000  Level Washington Center
12:46PM 37.4961 -78.6439 216° Southwest 436 502 34,000  Level Washington Center
12:47PM 37.4000 -78.7342 217° Southwest 436 502 34,000  Level Washington Center
12:48PM 37.3017 -78.8242 216° Southwest 441 507 34,000  Level Washington Center
12:49PM 37.2053 -78.9139 217° Southwest 441 507 34,000  Level Washington Center
12:50PM 37.0983 -79.0136 217° Southwest 441 507 34,000  Level Washington Center
12:51PM 37.0017 -79.1028 216° Southwest 441 507 34,000  Level Washington Center
12:52PM 36.9053 -79.1919 217° Southwest 441 507 34,000  Level Washington Center
12:53PM 36.8086 -79.2808 216° Southwest 441 507 34,000  Level Washington Center
12:54PM 36.6636 -79.4142 216° Southwest 439 505 34,000  Level Atlanta Center
12:55PM 36.5647 -79.5025 216° Southwest 439 505 34,000  Level Atlanta Center
12:56PM 36.4678 -79.5906 216° Southwest 439 505 34,000  Level Atlanta Center
12:57PM 36.3789 -79.6703 216° Southwest 439 505 34,000 120 Level Atlanta Center
12:58PM 36.2839 -79.7581 217° Southwest 439 505 34,300 720 Climbing Atlanta Center
12:59PM 36.1867 -79.8428 215° Southwest 439 505 35,500 1,020 Climbing Atlanta Center
01:00PM 36.0936 -79.9275 216° Southwest 434 499 36,400 960 Climbing Atlanta Center
01:01PM 35.9794 -80.0050 209° Southwest 429 494 37,500 780 Climbing Atlanta Center
01:02PM 35.8708 -80.0617 203° Southwest 429 494 38,000 240 Climbing Atlanta Center
01:03PM 35.7578 -80.1183 202° Southwest 435 501 38,000  Level Atlanta Center
01:04PM 35.6492 -80.1747 203° Southwest 435 501 38,000  Level Atlanta Center
01:05PM 35.5381 -80.2308 202° Southwest 435 501 38,000  Level Atlanta Center
01:06PM 35.4375 -80.2814 202° Southwest 435 501 38,000  Level Atlanta Center
01:07PM 35.3286 -80.3347 202° Southwest 430 495 38,000  Level Atlanta Center
01:11PM 34.8933 -80.5514 202° Southwest 438 504 38,000  Level Jacksonville Center
01:12PM 34.7858 -80.6100 204° Southwest 438 504 38,000  Level Jacksonville Center
01:13PM 34.6700 -80.6636 201° Southwest 438 504 38,000  Level Jacksonville Center
01:14PM 34.5417 -80.7222 201° Southwest 453 521 38,000  Level Jacksonville Center
01:15PM 34.4258 -80.7831 203° Southwest 443 510 38,000  Level Jacksonville Center
01:16PM 34.3142 -80.8311 200° South 442 509 38,000  Level Jacksonville Center
01:17PM 34.2044 -80.8889 204° Southwest 434 499 38,000  Level Jacksonville Center
01:18PM 34.0906 -80.9442 202° Southwest 434 499 38,000 -60 Level Jacksonville Center
01:19PM 33.9786 -80.9992 202° Southwest 434 499 37,900  Descending Jacksonville Center
01:20PM 33.8772 -81.0439 200° South 434 499 38,000  Climbing Jacksonville Center
01:21PM 33.7672 -81.0964 202° Southwest 434 499 38,000  Level Jacksonville Center
01:22PM 33.6408 -81.1636 204° Southwest 434 499 38,000  Level Jacksonville Center
01:23PM 33.5289 -81.2183 202° Southwest 439 505 38,000  Level Jacksonville Center
01:24PM 33.4150 -81.2750 203° Southwest 439 505 38,000  Level Jacksonville Center
01:25PM 33.3031 -81.3319 203° Southwest 439 505 38,000  Level Jacksonville Center
01:26PM 33.1889 -81.3858 202° Southwest 439 505 38,000  Level Jacksonville Center
01:27PM 33.0725 -81.4425 202° Southwest 444 511 38,000  Level Jacksonville Center
01:28PM 32.9606 -81.4961 202° Southwest 444 511 38,000  Level Jacksonville Center
01:29PM 32.8464 -81.5525 203° Southwest 444 511 38,000  Level Jacksonville Center
01:30PM 32.7342 -81.6083 203° Southwest 444 511 38,000  Level Jacksonville Center
01:31PM 32.6303 -81.6592 202° Southwest 444 511 38,000  Level Jacksonville Center
01:32PM 32.5078 -81.7175 202° Southwest 438 504 38,000  Level Jacksonville Center
01:33PM 32.4036 -81.7656 201° Southwest 444 511 38,000  Level Jacksonville Center
01:34PM 32.2789 -81.8261 202° Southwest 444 511 38,000  Level Jacksonville Center
01:35PM 32.1625 -81.8814 202° Southwest 444 511 38,000  Level Jacksonville Center
01:36PM 32.0586 -81.9292 201° Southwest 443 510 38,000  Level Jacksonville Center
01:37PM 31.9294 -81.9697 195° South 443 510 38,000  Level Jacksonville Center
01:38PM 31.8019 -81.9808 184° South 455 524 38,000  Level Jacksonville Center
01:39PM 31.6728 -81.9942 185° South 462 532 38,000  Level Jacksonville Center
01:40PM 31.5456 -82.0075 185° South 462 532 38,000  Level Jacksonville Center
01:41PM 31.4308 -82.0208 186° South 463 533 38,000 -60 Level Jacksonville Center
01:42PM 31.3075 -82.0317 184° South 463 533 37,900  Descending Jacksonville Center
01:43PM 31.1803 -82.0428 184° South 463 533 38,000  Climbing Jacksonville Center
01:44PM 31.0531 -82.0583 186° South 463 533 38,000  Level Jacksonville Center
01:45PM 30.9300 -82.0667 183° South 463 533 38,000  Level Jacksonville Center
01:46PM 30.8025 -82.0775 184° South 463 533 38,000  Level Jacksonville Center
01:47PM 30.6733 -82.0906 185° South 463 533 38,000  Level Jacksonville Center
01:48PM 30.5458 -82.0942 181° South 463 533 38,000  Level Jacksonville Center
01:49PM 30.4081 -82.1072 185° South 456 525 38,000  Level Jacksonville Center
01:50PM 30.2808 -82.1228 186° South 462 532 38,000  Level Jacksonville Center
01:51PM 30.1514 -82.1214 179° South 469 540 38,000 -60 Level Jacksonville Center
01:52PM 30.0219 -82.0961 170° South 464 534 37,900 -60 Descending Jacksonville Center
01:53PM 29.8903 -82.0756 172° South 472 543 37,900 -540 Level Jacksonville Center
01:54PM 29.7606 -82.0481 170° South 472 543 36,900 -1,020 Descending Jacksonville Center
01:55PM 29.6308 -82.0228 170° South 472 543 35,900 -960 Descending Jacksonville Center
01:56PM 29.5014 -82.0003 171° South 472 543 35,000 -480 Descending Jacksonville Center
01:57PM 29.3717 -81.9728 170° South 472 543 35,000 -780 Level Jacksonville Center
01:58PM 29.2400 -81.9453 170° South 477 549 33,500 -1,500 Descending Jacksonville Center
01:59PM 29.1083 -81.9158 169° South 477 549 32,100 -1,320 Descending Jacksonville Center
02:02PM 28.8161 -81.8639 171° South 468 539 29,100 -1,200 Descending Miami Center
02:03PM 28.6878 -81.8369 170° South 462 532 28,100 -1,020 Descending Miami Center
02:04PM 28.5614 -81.8125 170° South 467 537 27,100 -600 Descending Miami Center
02:05PM 28.4333 -81.7783 167° South 467 537 27,000 -540 Descending Miami Center
02:06PM 28.3075 -81.7375 164° South 467 537 26,100 -960 Descending Miami Center
02:07PM 28.1833 -81.7039 167° South 467 537 25,100 -1,020 Descending Miami Center
02:08PM 28.0572 -81.6725 168° South 467 537 24,100 -1,020 Descending Miami Center
02:09PM 27.9394 -81.7006 192° South 441 507 23,100 -1,020 Descending Miami Center
02:10PM 27.8236 -81.7356 195° South 441 507 22,100 -1,020 Descending Miami Center
02:11PM 27.7078 -81.7633 192° South 429 494 21,100 -1,320 Descending Miami Center
02:12PM 27.5786 -81.7531 176° South 429 494 19,500 -1,800 Descending Miami Center
02:13PM 27.4822 -81.7092 158° South 424 488 17,500 -1,320 Descending Miami Center
02:14PM 27.3775 -81.6581 157° South 419 482 16,900 -1,200 Descending Miami Center
02:15PM 27.2747 -81.6094 157° South 409 471 15,100 -1,680 Descending Miami Center
02:16PM 27.1697 -81.5608 158° South 396 456 13,600 -1,560 Descending Miami Center
02:17PM 27.0875 -81.5225 157° South 356 410 12,000 -1,620 Descending Miami Center
02:18PM 27.0047 -81.4981 165° South 324 373 10,400 -1,080 Descending Miami Center
02:19PM 26.9325 -81.4767 165° South 293 337 9,900 -360 Descending Miami Center
02:20PM 26.8714 -81.4253 143° Southeast 288 331 9,700 -1,200 Descending Miami Center
02:21PM 26.7911 -81.3872 157° South 290 334 7,600 -1,620 Descending Miami Center
02:22PM 26.7117 -81.3936 184° South 285 328 6,500 -900 Descending Miami Center
02:23PM 26.6439 -81.4233 201° Southwest 267 307 5,900 -780 Descending Miami Center
02:24PM 26.6083 -81.4894 239° Southwest 265 305 5,000 -480 Descending Miami Center
02:25PM 26.5644 -81.5572 234° Southwest 273 314 5,000  Level Miami Center
02:27PM 26.5362 -81.7552 261° West  Level Estimated
02:34PM 26.5362 -81.7552 138° Southeast  Level Estimated
02:35PM 26.5362 -81.7552 138° Southeast  Level Estimated
02:36PM 26.5362 -81.7552 138° Southeast  Level Estimated
02:37PM 26.5362 -81.7552 138° Southeast  Level Estimated